C2008 KNBG-KNBG
Flight info
| Callsign | C2008 |
|---|---|
| Flight time | N/A |
| Altitude | 3000 |
| Route | LEV |
| Aircraft | C30J/M-VGDW/C |
Departure
| Time | 2026-05-08 08:13 |
|---|---|
| Airport | New Orleans NAS JRB/Alvin Callender Field (KNBG) |
Arrival
| Time | N/A |
|---|---|
| Airport | New Orleans NAS JRB/Alvin Callender Field (KNBG) |
| Time | Latitude | Longitude | Altitude | Speed | Heading |
|---|---|---|---|---|---|
| 2026-05-08 07:58 | 29.82002 | -90.02614 | 10 ft | 0 kts | 45° |
| 2026-05-08 08:08 | 29.82008 | -90.02606 | 10 ft | 3 kts | 47° |
| 2026-05-08 08:09 | 29.82008 | -90.02603 | 11 ft | 0 kts | 100° |
| 2026-05-08 08:09 | 29.82005 | -90.02601 | 12 ft | 1 kts | 161° |
| 2026-05-08 08:09 | 29.81993 | -90.02606 | 12 ft | 2 kts | 210° |
| 2026-05-08 08:09 | 29.81959 | -90.02620 | 10 ft | 7 kts | 201° |
| 2026-05-08 08:10 | 29.81914 | -90.02662 | 10 ft | 7 kts | 244° |
| 2026-05-08 08:10 | 29.81922 | -90.02712 | 11 ft | 5 kts | 304° |
| 2026-05-08 08:10 | 29.81970 | -90.02760 | 9 ft | 15 kts | 320° |
| 2026-05-08 08:10 | 29.82070 | -90.02854 | 10 ft | 21 kts | 320° |
| 2026-05-08 08:11 | 29.82188 | -90.02966 | 12 ft | 23 kts | 320° |
| 2026-05-08 08:11 | 29.82306 | -90.03078 | 13 ft | 20 kts | 321° |
| 2026-05-08 08:11 | 29.82388 | -90.03158 | 14 ft | 10 kts | 317° |
| 2026-05-08 08:11 | 29.82387 | -90.03214 | 16 ft | 6 kts | 220° |
| 2026-05-08 08:12 | 29.82380 | -90.03224 | 15 ft | 4 kts | 235° |
| 2026-05-08 08:12 | 29.82331 | -90.03273 | 13 ft | 8 kts | 199° |
| 2026-05-08 08:12 | 29.82238 | -90.03218 | 13 ft | 37 kts | 140° |
| 2026-05-08 08:12 | 29.81801 | -90.02810 | 22 ft | 125 kts | 141° |
| 2026-05-08 08:13 | 29.81020 | -90.02050 | 408 ft | 159 kts | 150° |
| 2026-05-08 08:13 | 29.79994 | -90.01896 | 1305 ft | 155 kts | 199° |
| 2026-05-08 08:13 | 29.78904 | -90.02274 | 2017 ft | 171 kts | 200° |
| 2026-05-08 08:13 | 29.77770 | -90.02674 | 2758 ft | 184 kts | 200° |
| 2026-05-08 08:14 | 29.76426 | -90.03170 | 2945 ft | 222 kts | 200° |
| 2026-05-08 08:14 | 29.74925 | -90.03737 | 2982 ft | 234 kts | 201° |
| 2026-05-08 08:14 | 29.73350 | -90.04348 | 2970 ft | 240 kts | 201° |
| 2026-05-08 08:14 | 29.71767 | -90.04971 | 2965 ft | 240 kts | 201° |
| 2026-05-08 08:15 | 29.70186 | -90.05597 | 2960 ft | 240 kts | 199° |
| 2026-05-08 08:15 | 29.68520 | -90.05782 | 2970 ft | 243 kts | 180° |
| 2026-05-08 08:15 | 29.66827 | -90.05696 | 2968 ft | 243 kts | 182° |
| 2026-05-08 08:15 | 29.65138 | -90.05734 | 2967 ft | 243 kts | 184° |
| 2026-05-08 08:16 | 29.63448 | -90.05788 | 2957 ft | 244 kts | 184° |
| 2026-05-08 08:16 | 29.61756 | -90.05840 | 2966 ft | 243 kts | 184° |
| 2026-05-08 08:16 | 29.60066 | -90.05895 | 2968 ft | 242 kts | 184° |
| 2026-05-08 08:16 | 29.58379 | -90.05948 | 2967 ft | 244 kts | 184° |
| 2026-05-08 08:17 | 29.56683 | -90.06002 | 2966 ft | 243 kts | 184° |
| 2026-05-08 08:17 | 29.54995 | -90.06057 | 2966 ft | 243 kts | 184° |
| 2026-05-08 08:17 | 29.53306 | -90.06113 | 2966 ft | 243 kts | 184° |
| 2026-05-08 08:17 | 29.51618 | -90.06166 | 2967 ft | 243 kts | 184° |
| 2026-05-08 08:18 | 29.49952 | -90.06218 | 2966 ft | 243 kts | 184° |
| 2026-05-08 08:18 | 29.48249 | -90.06270 | 2971 ft | 251 kts | 184° |
| 2026-05-08 08:18 | 29.46454 | -90.06333 | 2972 ft | 264 kts | 184° |
| 2026-05-08 08:18 | 29.44612 | -90.06448 | 2959 ft | 265 kts | 188° |
| 2026-05-08 08:19 | 29.42792 | -90.06713 | 2967 ft | 263 kts | 190° |
| 2026-05-08 08:19 | 29.41005 | -90.06993 | 2954 ft | 257 kts | 190° |
| 2026-05-08 08:19 | 29.39238 | -90.07267 | 2967 ft | 257 kts | 190° |
| 2026-05-08 08:19 | 29.37463 | -90.07533 | 2966 ft | 258 kts | 189° |
| 2026-05-08 08:20 | 29.35683 | -90.07796 | 2967 ft | 258 kts | 189° |
| 2026-05-08 08:20 | 29.33894 | -90.08056 | 2955 ft | 259 kts | 189° |
| 2026-05-08 08:20 | 29.32108 | -90.08316 | 2967 ft | 259 kts | 189° |
| 2026-05-08 08:20 | 29.30315 | -90.08571 | 2961 ft | 259 kts | 189° |
| 2026-05-08 08:21 | 29.28526 | -90.08831 | 2967 ft | 259 kts | 189° |
| 2026-05-08 08:21 | 29.26737 | -90.09089 | 2967 ft | 259 kts | 189° |
| 2026-05-08 08:21 | 29.24947 | -90.09347 | 2966 ft | 259 kts | 189° |
| 2026-05-08 08:21 | 29.23160 | -90.09602 | 2968 ft | 259 kts | 189° |
| 2026-05-08 08:22 | 29.21369 | -90.09857 | 2967 ft | 259 kts | 189° |
| 2026-05-08 08:22 | 29.19572 | -90.10088 | 2955 ft | 260 kts | 184° |
| 2026-05-08 08:22 | 29.17825 | -90.09692 | 2967 ft | 265 kts | 156° |
| 2026-05-08 08:22 | 29.16402 | -90.08364 | 2973 ft | 266 kts | 132° |
| 2026-05-08 08:23 | 29.15252 | -90.06686 | 2967 ft | 268 kts | 128° |
| 2026-05-08 08:23 | 29.14145 | -90.04959 | 2968 ft | 268 kts | 127° |
| 2026-05-08 08:23 | 29.13063 | -90.03231 | 2968 ft | 268 kts | 127° |
| 2026-05-08 08:23 | 29.11997 | -90.01483 | 2968 ft | 268 kts | 126° |
| 2026-05-08 08:24 | 29.10931 | -89.99726 | 2962 ft | 270 kts | 126° |
| 2026-05-08 08:24 | 29.09869 | -89.97953 | 2956 ft | 271 kts | 126° |
| 2026-05-08 08:24 | 29.08806 | -89.96184 | 2960 ft | 270 kts | 126° |
| 2026-05-08 08:24 | 29.07740 | -89.94424 | 2967 ft | 269 kts | 126° |
| 2026-05-08 08:25 | 29.06676 | -89.92664 | 2968 ft | 269 kts | 126° |
| 2026-05-08 08:25 | 29.05610 | -89.90912 | 2966 ft | 269 kts | 126° |
| 2026-05-08 08:25 | 29.04542 | -89.89162 | 2968 ft | 269 kts | 126° |
| 2026-05-08 08:25 | 29.03470 | -89.87408 | 2967 ft | 269 kts | 126° |
| 2026-05-08 08:26 | 29.02758 | -89.86249 | 2964 ft | 269 kts | 126° |
| 2026-05-08 08:26 | 29.01682 | -89.84499 | 2967 ft | 269 kts | 126° |
| 2026-05-08 08:26 | 29.00607 | -89.82743 | 2967 ft | 269 kts | 126° |
| 2026-05-08 08:26 | 28.99531 | -89.80988 | 2959 ft | 269 kts | 126° |
| 2026-05-08 08:27 | 28.98462 | -89.79240 | 2956 ft | 268 kts | 126° |
| 2026-05-08 08:27 | 28.97391 | -89.77491 | 2960 ft | 269 kts | 126° |
| 2026-05-08 08:27 | 28.96320 | -89.75744 | 2967 ft | 268 kts | 126° |
| 2026-05-08 08:27 | 28.95247 | -89.74005 | 2967 ft | 268 kts | 126° |
| 2026-05-08 08:28 | 28.94172 | -89.72260 | 2952 ft | 269 kts | 126° |
| 2026-05-08 08:28 | 28.93096 | -89.70515 | 2968 ft | 269 kts | 126° |
| 2026-05-08 08:28 | 28.92022 | -89.68766 | 2966 ft | 269 kts | 126° |
| 2026-05-08 08:28 | 28.90949 | -89.67020 | 2968 ft | 269 kts | 126° |
| 2026-05-08 08:29 | 28.89869 | -89.65271 | 2964 ft | 269 kts | 126° |
| 2026-05-08 08:29 | 28.88808 | -89.63542 | 2967 ft | 269 kts | 126° |
| 2026-05-08 08:29 | 28.87732 | -89.61792 | 2966 ft | 269 kts | 126° |
| 2026-05-08 08:29 | 28.86654 | -89.60046 | 2967 ft | 269 kts | 126° |
| 2026-05-08 08:30 | 28.85579 | -89.58301 | 2961 ft | 269 kts | 126° |
| 2026-05-08 08:30 | 28.84500 | -89.56559 | 2966 ft | 269 kts | 126° |
| 2026-05-08 08:30 | 28.82347 | -89.53073 | 2967 ft | 269 kts | 126° |
| 2026-05-08 08:31 | 28.81270 | -89.51328 | 2967 ft | 269 kts | 126° |
| 2026-05-08 08:31 | 28.80193 | -89.49584 | 2961 ft | 269 kts | 126° |
| 2026-05-08 08:31 | 28.79117 | -89.47844 | 2966 ft | 269 kts | 127° |
| 2026-05-08 08:31 | 28.78039 | -89.46102 | 2968 ft | 269 kts | 127° |
| 2026-05-08 08:32 | 28.76964 | -89.44365 | 2967 ft | 269 kts | 126° |
| 2026-05-08 08:32 | 28.75882 | -89.42618 | 2967 ft | 269 kts | 127° |
| 2026-05-08 08:32 | 28.74806 | -89.40883 | 2953 ft | 269 kts | 127° |
| 2026-05-08 08:32 | 28.73727 | -89.39142 | 2967 ft | 268 kts | 127° |
| 2026-05-08 08:33 | 28.72647 | -89.37406 | 2967 ft | 269 kts | 127° |
| 2026-05-08 08:33 | 28.71569 | -89.35667 | 2967 ft | 269 kts | 126° |
| 2026-05-08 08:33 | 28.70503 | -89.33948 | 2967 ft | 269 kts | 126° |
| 2026-05-08 08:33 | 28.69425 | -89.32206 | 2967 ft | 269 kts | 127° |
| 2026-05-08 08:34 | 28.68348 | -89.30471 | 2967 ft | 269 kts | 127° |
| 2026-05-08 08:34 | 28.67270 | -89.28735 | 2957 ft | 269 kts | 127° |
| 2026-05-08 08:34 | 28.66191 | -89.27004 | 2967 ft | 268 kts | 127° |
| 2026-05-08 08:34 | 28.65097 | -89.25247 | 2969 ft | 277 kts | 127° |
| 2026-05-08 08:35 | 28.63976 | -89.23444 | 2953 ft | 278 kts | 127° |
| 2026-05-08 08:35 | 28.62835 | -89.21609 | 2974 ft | 293 kts | 127° |
| 2026-05-08 08:35 | 28.61631 | -89.19677 | 2971 ft | 305 kts | 126° |
| 2026-05-08 08:35 | 28.60404 | -89.17701 | 2961 ft | 306 kts | 126° |
| 2026-05-08 08:36 | 28.59176 | -89.15730 | 2968 ft | 305 kts | 127° |
| 2026-05-08 08:36 | 28.57946 | -89.13763 | 2953 ft | 304 kts | 127° |
| 2026-05-08 08:36 | 28.56720 | -89.11803 | 2967 ft | 305 kts | 126° |
| 2026-05-08 08:36 | 28.55494 | -89.09832 | 2959 ft | 305 kts | 126° |
| 2026-05-08 08:37 | 28.54269 | -89.07869 | 2967 ft | 305 kts | 127° |
| 2026-05-08 08:37 | 28.53041 | -89.05903 | 2959 ft | 304 kts | 127° |
| 2026-05-08 08:37 | 28.51814 | -89.03937 | 2967 ft | 305 kts | 126° |
| 2026-05-08 08:37 | 28.50587 | -89.01976 | 2968 ft | 305 kts | 127° |
| 2026-05-08 08:38 | 28.49355 | -89.00010 | 2959 ft | 305 kts | 126° |
| 2026-05-08 08:38 | 28.48130 | -88.98052 | 2967 ft | 305 kts | 127° |
| 2026-05-08 08:38 | 28.46905 | -88.96090 | 2960 ft | 303 kts | 126° |
| 2026-05-08 08:38 | 28.45681 | -88.94137 | 2970 ft | 305 kts | 127° |
| 2026-05-08 08:39 | 28.44449 | -88.92171 | 2967 ft | 306 kts | 127° |
| 2026-05-08 08:39 | 28.43236 | -88.90237 | 2956 ft | 304 kts | 127° |
| 2026-05-08 08:39 | 28.42004 | -88.88276 | 2967 ft | 305 kts | 127° |
| 2026-05-08 08:39 | 28.40774 | -88.86319 | 2966 ft | 305 kts | 127° |
| 2026-05-08 08:40 | 28.39545 | -88.84360 | 2968 ft | 304 kts | 127° |
| 2026-05-08 08:40 | 28.38315 | -88.82400 | 2967 ft | 305 kts | 127° |
| 2026-05-08 08:40 | 28.37084 | -88.80440 | 2966 ft | 305 kts | 127° |
| 2026-05-08 08:40 | 28.35850 | -88.78481 | 2968 ft | 305 kts | 127° |
| 2026-05-08 08:41 | 28.34617 | -88.76524 | 2966 ft | 305 kts | 127° |
| 2026-05-08 08:41 | 28.33385 | -88.74567 | 2966 ft | 305 kts | 127° |
| 2026-05-08 08:41 | 28.32155 | -88.72613 | 2968 ft | 305 kts | 127° |
| 2026-05-08 08:41 | 28.30919 | -88.70654 | 2967 ft | 305 kts | 127° |
| 2026-05-08 08:42 | 28.29689 | -88.68699 | 2962 ft | 305 kts | 127° |
| 2026-05-08 08:42 | 28.28455 | -88.66740 | 2967 ft | 305 kts | 127° |
| 2026-05-08 08:42 | 28.27239 | -88.64813 | 2967 ft | 304 kts | 127° |
| 2026-05-08 08:42 | 28.26006 | -88.62859 | 2966 ft | 304 kts | 127° |
| 2026-05-08 08:43 | 28.24773 | -88.60909 | 2966 ft | 304 kts | 127° |
| 2026-05-08 08:43 | 28.23536 | -88.58951 | 2968 ft | 305 kts | 127° |
| 2026-05-08 08:43 | 28.22303 | -88.57000 | 2967 ft | 305 kts | 127° |
| 2026-05-08 08:43 | 28.21068 | -88.55046 | 2967 ft | 304 kts | 127° |
| 2026-05-08 08:44 | 28.19836 | -88.53098 | 2968 ft | 305 kts | 127° |
| 2026-05-08 08:44 | 28.18598 | -88.51141 | 2966 ft | 304 kts | 127° |
| 2026-05-08 08:44 | 28.17361 | -88.49193 | 2967 ft | 305 kts | 127° |
| 2026-05-08 08:44 | 28.16126 | -88.47245 | 2967 ft | 305 kts | 127° |
| 2026-05-08 08:45 | 28.14890 | -88.45289 | 2967 ft | 305 kts | 127° |
| 2026-05-08 08:45 | 28.13656 | -88.43342 | 2967 ft | 305 kts | 127° |
| 2026-05-08 08:45 | 28.12420 | -88.41390 | 2967 ft | 305 kts | 127° |
| 2026-05-08 08:45 | 28.11185 | -88.39448 | 2962 ft | 304 kts | 127° |
| 2026-05-08 08:46 | 28.09948 | -88.37500 | 2968 ft | 305 kts | 127° |
| 2026-05-08 08:46 | 28.08707 | -88.35545 | 2967 ft | 305 kts | 127° |
| 2026-05-08 08:46 | 28.07470 | -88.33600 | 2967 ft | 304 kts | 127° |
| 2026-05-08 08:46 | 28.06233 | -88.31653 | 2968 ft | 304 kts | 127° |
| 2026-05-08 08:47 | 28.05001 | -88.29718 | 2952 ft | 295 kts | 127° |
| 2026-05-08 08:47 | 28.03893 | -88.27971 | 2950 ft | 256 kts | 127° |
| 2026-05-08 08:47 | 28.02873 | -88.26367 | 2970 ft | 251 kts | 127° |
| 2026-05-08 08:47 | 28.01848 | -88.24762 | 2968 ft | 253 kts | 127° |
| 2026-05-08 08:48 | 28.00824 | -88.23160 | 2966 ft | 251 kts | 127° |
| 2026-05-08 08:48 | 27.99801 | -88.21560 | 2967 ft | 252 kts | 127° |
| 2026-05-08 08:48 | 27.98777 | -88.19955 | 2968 ft | 252 kts | 127° |
| 2026-05-08 08:48 | 27.97752 | -88.18351 | 2966 ft | 251 kts | 127° |
| 2026-05-08 08:49 | 27.96745 | -88.16763 | 2967 ft | 251 kts | 127° |
| 2026-05-08 08:49 | 27.95708 | -88.15135 | 2968 ft | 252 kts | 127° |
| 2026-05-08 08:49 | 27.94681 | -88.13534 | 2958 ft | 252 kts | 127° |
| 2026-05-08 08:49 | 27.93657 | -88.11930 | 2966 ft | 251 kts | 127° |
| 2026-05-08 08:50 | 27.92635 | -88.10316 | 2968 ft | 251 kts | 127° |
| 2026-05-08 08:50 | 27.91608 | -88.08716 | 2956 ft | 252 kts | 128° |
| 2026-05-08 08:50 | 27.90582 | -88.07121 | 2966 ft | 250 kts | 128° |
| 2026-05-08 08:50 | 27.89556 | -88.05526 | 2968 ft | 252 kts | 127° |
| 2026-05-08 08:51 | 27.88545 | -88.03941 | 2966 ft | 251 kts | 127° |
| 2026-05-08 08:51 | 27.87517 | -88.02338 | 2967 ft | 252 kts | 127° |
| 2026-05-08 08:51 | 27.86494 | -88.00743 | 2967 ft | 251 kts | 127° |
| 2026-05-08 08:51 | 27.85472 | -87.99139 | 2966 ft | 252 kts | 127° |
| 2026-05-08 08:52 | 27.84443 | -87.97530 | 2968 ft | 251 kts | 127° |
| 2026-05-08 08:52 | 27.83418 | -87.95931 | 2967 ft | 252 kts | 127° |
| 2026-05-08 08:52 | 27.82387 | -87.94345 | 2971 ft | 251 kts | 127° |
| 2026-05-08 08:52 | 27.81366 | -87.92746 | 2966 ft | 251 kts | 127° |
| 2026-05-08 08:53 | 27.80343 | -87.91145 | 2968 ft | 249 kts | 127° |
| 2026-05-08 08:53 | 27.79317 | -87.89546 | 2968 ft | 252 kts | 127° |
| 2026-05-08 08:53 | 27.78287 | -87.87938 | 2954 ft | 252 kts | 127° |
| 2026-05-08 08:53 | 27.77263 | -87.86337 | 2967 ft | 252 kts | 127° |
| 2026-05-08 08:54 | 27.76235 | -87.84735 | 2967 ft | 252 kts | 127° |
| 2026-05-08 08:54 | 27.75211 | -87.83140 | 2969 ft | 252 kts | 127° |
| 2026-05-08 08:54 | 27.74175 | -87.81535 | 2959 ft | 251 kts | 128° |
| 2026-05-08 08:54 | 27.73144 | -87.79940 | 2967 ft | 252 kts | 127° |
| 2026-05-08 08:55 | 27.72131 | -87.78372 | 2966 ft | 251 kts | 127° |
| 2026-05-08 08:55 | 27.71105 | -87.76779 | 2967 ft | 251 kts | 127° |
| 2026-05-08 08:55 | 27.70076 | -87.75181 | 2968 ft | 252 kts | 127° |
| 2026-05-08 08:55 | 27.69047 | -87.73578 | 2867 ft | 254 kts | 127° |
| 2026-05-08 08:56 | 27.68029 | -87.71994 | 2566 ft | 239 kts | 127° |
| 2026-05-08 08:56 | 27.67205 | -87.70478 | 2236 ft | 214 kts | 116° |
| 2026-05-08 08:56 | 27.66755 | -87.68975 | 1992 ft | 195 kts | 102° |
| 2026-05-08 08:56 | 27.66601 | -87.67449 | 1959 ft | 196 kts | 92° |
| 2026-05-08 08:57 | 27.66588 | -87.65906 | 1964 ft | 198 kts | 89° |
| 2026-05-08 08:57 | 27.66618 | -87.64358 | 1965 ft | 198 kts | 89° |
| 2026-05-08 08:57 | 27.66657 | -87.62831 | 1979 ft | 197 kts | 88° |
| 2026-05-08 08:57 | 27.66702 | -87.61284 | 1970 ft | 198 kts | 88° |
| 2026-05-08 08:58 | 27.66744 | -87.59735 | 1963 ft | 197 kts | 89° |
| 2026-05-08 08:58 | 27.66784 | -87.58184 | 1964 ft | 198 kts | 88° |
| 2026-05-08 08:58 | 27.66821 | -87.56635 | 1964 ft | 198 kts | 88° |
| 2026-05-08 08:58 | 27.66860 | -87.55082 | 1964 ft | 198 kts | 88° |
| 2026-05-08 08:59 | 27.66898 | -87.53530 | 1964 ft | 198 kts | 88° |
| 2026-05-08 08:59 | 27.66941 | -87.51978 | 1966 ft | 198 kts | 88° |
| 2026-05-08 08:59 | 27.66977 | -87.50429 | 1963 ft | 198 kts | 88° |
| 2026-05-08 08:59 | 27.67012 | -87.48875 | 1965 ft | 198 kts | 89° |
| 2026-05-08 09:00 | 27.67045 | -87.47346 | 1964 ft | 198 kts | 88° |
| 2026-05-08 09:00 | 27.67081 | -87.45771 | 1964 ft | 198 kts | 88° |
| 2026-05-08 09:00 | 27.67116 | -87.44243 | 1964 ft | 198 kts | 89° |
| 2026-05-08 09:00 | 27.67154 | -87.42691 | 1965 ft | 198 kts | 88° |
| 2026-05-08 09:01 | 27.67191 | -87.41132 | 1963 ft | 198 kts | 88° |
| 2026-05-08 09:01 | 27.67227 | -87.39584 | 1965 ft | 198 kts | 89° |
| 2026-05-08 09:01 | 27.67258 | -87.38032 | 1964 ft | 198 kts | 89° |
| 2026-05-08 09:01 | 27.67290 | -87.36484 | 1965 ft | 198 kts | 89° |
| 2026-05-08 09:02 | 27.67327 | -87.34932 | 1963 ft | 197 kts | 89° |
| 2026-05-08 09:02 | 27.67359 | -87.33383 | 1964 ft | 197 kts | 89° |
| 2026-05-08 09:02 | 27.67356 | -87.31835 | 1963 ft | 198 kts | 97° |
| 2026-05-08 09:02 | 27.66837 | -87.30436 | 1965 ft | 195 kts | 135° |
| 2026-05-08 09:03 | 27.65675 | -87.29767 | 1966 ft | 188 kts | 178° |
| 2026-05-08 09:03 | 27.64392 | -87.29919 | 1968 ft | 186 kts | 197° |
| 2026-05-08 09:03 | 27.63175 | -87.30303 | 1965 ft | 185 kts | 200° |
| 2026-05-08 09:03 | 27.61929 | -87.30718 | 1964 ft | 185 kts | 199° |
| 2026-05-08 09:04 | 27.60704 | -87.31090 | 1965 ft | 185 kts | 197° |
| 2026-05-08 09:04 | 27.59455 | -87.31435 | 1971 ft | 184 kts | 196° |
| 2026-05-08 09:04 | 27.58199 | -87.31761 | 1965 ft | 185 kts | 196° |
| 2026-05-08 09:04 | 27.56944 | -87.32078 | 1964 ft | 185 kts | 195° |
| 2026-05-08 09:05 | 27.55686 | -87.32395 | 1965 ft | 185 kts | 196° |
| 2026-05-08 09:05 | 27.54431 | -87.32721 | 1963 ft | 185 kts | 196° |
| 2026-05-08 09:05 | 27.53190 | -87.33102 | 1961 ft | 183 kts | 207° |
| 2026-05-08 09:05 | 27.52271 | -87.34031 | 1965 ft | 178 kts | 245° |
| 2026-05-08 09:06 | 27.52179 | -87.35382 | 1968 ft | 178 kts | 285° |
| 2026-05-08 09:06 | 27.52663 | -87.36666 | 1966 ft | 179 kts | 296° |
| 2026-05-08 09:06 | 27.53267 | -87.37891 | 1964 ft | 179 kts | 298° |
| 2026-05-08 09:06 | 27.53884 | -87.39107 | 1964 ft | 179 kts | 298° |
| 2026-05-08 09:07 | 27.54498 | -87.40323 | 1964 ft | 178 kts | 298° |
| 2026-05-08 09:07 | 27.55108 | -87.41542 | 1964 ft | 179 kts | 298° |
| 2026-05-08 09:07 | 27.55703 | -87.42745 | 1964 ft | 179 kts | 297° |
| 2026-05-08 09:07 | 27.56304 | -87.43974 | 1964 ft | 179 kts | 297° |
| 2026-05-08 09:08 | 27.56904 | -87.45200 | 1964 ft | 179 kts | 297° |
| 2026-05-08 09:08 | 27.57500 | -87.46429 | 1964 ft | 178 kts | 297° |
| 2026-05-08 09:08 | 27.58094 | -87.47659 | 1964 ft | 178 kts | 297° |
| 2026-05-08 09:08 | 27.58687 | -87.48889 | 1964 ft | 178 kts | 297° |
| 2026-05-08 09:09 | 27.59278 | -87.50118 | 1965 ft | 178 kts | 297° |
| 2026-05-08 09:09 | 27.59873 | -87.51350 | 1965 ft | 178 kts | 297° |
| 2026-05-08 09:09 | 27.60470 | -87.52577 | 1964 ft | 179 kts | 297° |
| 2026-05-08 09:09 | 27.61062 | -87.53808 | 1964 ft | 178 kts | 297° |
| 2026-05-08 09:10 | 27.61649 | -87.55039 | 1965 ft | 179 kts | 297° |
| 2026-05-08 09:10 | 27.62237 | -87.56276 | 1965 ft | 179 kts | 297° |
| 2026-05-08 09:10 | 27.62828 | -87.57509 | 1964 ft | 178 kts | 297° |
| 2026-05-08 09:10 | 27.63419 | -87.58737 | 1965 ft | 178 kts | 297° |
| 2026-05-08 09:11 | 27.64012 | -87.59967 | 1965 ft | 178 kts | 297° |
| 2026-05-08 09:11 | 27.64602 | -87.61197 | 1965 ft | 179 kts | 297° |
| 2026-05-08 09:11 | 27.65195 | -87.62429 | 1964 ft | 179 kts | 297° |
| 2026-05-08 09:11 | 27.65787 | -87.63663 | 1965 ft | 179 kts | 297° |
| 2026-05-08 09:12 | 27.66374 | -87.64879 | 1964 ft | 178 kts | 297° |
| 2026-05-08 09:12 | 27.66962 | -87.66111 | 1964 ft | 179 kts | 297° |
| 2026-05-08 09:12 | 27.67550 | -87.67345 | 1965 ft | 179 kts | 297° |
| 2026-05-08 09:12 | 27.68142 | -87.68575 | 1964 ft | 179 kts | 297° |
| 2026-05-08 09:13 | 27.68732 | -87.69810 | 1963 ft | 178 kts | 297° |
| 2026-05-08 09:13 | 27.69323 | -87.71039 | 1965 ft | 178 kts | 297° |
| 2026-05-08 09:13 | 27.69912 | -87.72273 | 1964 ft | 179 kts | 297° |
| 2026-05-08 09:13 | 27.70500 | -87.73508 | 1965 ft | 179 kts | 297° |
| 2026-05-08 09:14 | 27.71090 | -87.74739 | 1964 ft | 179 kts | 297° |
| 2026-05-08 09:14 | 27.71682 | -87.75971 | 1963 ft | 178 kts | 297° |
| 2026-05-08 09:14 | 27.72269 | -87.77203 | 1966 ft | 179 kts | 297° |
| 2026-05-08 09:14 | 27.72860 | -87.78439 | 1964 ft | 179 kts | 297° |
| 2026-05-08 09:15 | 27.73451 | -87.79671 | 1965 ft | 179 kts | 297° |
| 2026-05-08 09:15 | 27.74043 | -87.80905 | 1964 ft | 179 kts | 297° |
| 2026-05-08 09:15 | 27.74636 | -87.82139 | 1964 ft | 179 kts | 297° |
| 2026-05-08 09:15 | 27.75229 | -87.83369 | 1964 ft | 179 kts | 297° |
| 2026-05-08 09:16 | 27.75817 | -87.84607 | 1964 ft | 178 kts | 297° |
| 2026-05-08 09:16 | 27.76396 | -87.85826 | 1965 ft | 178 kts | 297° |
| 2026-05-08 09:16 | 27.76988 | -87.87059 | 1964 ft | 179 kts | 297° |
| 2026-05-08 09:16 | 27.77577 | -87.88293 | 1964 ft | 179 kts | 297° |
| 2026-05-08 09:17 | 27.78168 | -87.89527 | 1964 ft | 179 kts | 297° |
| 2026-05-08 09:17 | 27.78758 | -87.90760 | 1963 ft | 178 kts | 297° |
| 2026-05-08 09:17 | 27.79147 | -87.91579 | 1964 ft | 178 kts | 297° |
| 2026-05-08 09:17 | 27.79737 | -87.92814 | 1965 ft | 178 kts | 297° |